Дата Пункты Температура Давл., мм. Влажн., % Ветер Погодные явления
Воздуха Воды Направл. Скорость
07.05.15 11:00 Одесса 13.0 11.0 756 88 Пд 3 12 часов
07.05.15 08:00 Одесса 13.0 11.0 756 93 Пд 3 09 часов
07.05.15 05:00 Одесса 13.0 10.0 756 90 Пд 2 06 часов
07.05.15 02:00 Одесса 14.0 10.0 758 75 Пд-З 2 03 часа
06.05.15 08:00 Одесса 15.0 10.0 758 59 Пд-З 2 21 час
06.05.15 05:00 Одесса 17.0 10.0 759 51 Пд 3 18 часов
06.05.15 02:00 Одесса 15.0 10.0 760 70 Пд 4 15 часов
06.05.15 11:00 Одесса 16.0 9.0 760 67 Пд-С 2 12 часов
06.05.15 08:00 Одесса 14.0 9.0 760 90 С 1 09 часов
06.05.15 05:00 Одесса 9.0 10.0 760 96 Пд 1 06 часов
06.05.15 02:00 Одесса 11.0 10.0 760 95 С 1 03 часа
05.05.15 08:00 Одесса 12.0 10.0 760 97 Пд 2 21 час
05.05.15 05:00 Одесса 13.0 11.0 759 95 Пд 2 18 часов
05.05.15 02:00 Одесса 14.0 11.0 760 79 Пд 4 15 часов
05.05.15 11:00 Одесса 17.0 11.0 760 60 Пд-З 2 12 часов
05.05.15 08:00 Одесса 14.0 11.0 760 86 Пд-З 2 09 часов
05.05.15 05:00 Одесса 14.0 12.0 759 92 Пд-З 2 06 часов
05.05.15 02:00 Одесса 13.0 12.0 759 89 Пд 2 03 часа
04.05.15 08:00 Одесса 14.0 12.0 759 78 Пд-З 2 21 час
04.05.15 05:00 Одесса 17.0 12.0 759 52 Пд-З 2 18 часов
Количество строк
351 352 353 354 355 356 357 358 359 360
Page 360 of 448